Share

Sapporo, Japón

5:25 PM JST en Abril 24, 2014 (GMT +0900)
New Chitose (RJCC) Alt 98 ft | 42.77 °N, 141.69 °E | Change Station

Current weather conditions updated 25 minutes ago

Clear
Despejado
68 ° F
Sensación térmica 68 ° F
N
9
Viento Variable Viento desde Norte
Amanecer 4:39 AM
Atardecer 6:27 PM
Luna Creciente menguante

Mañana se prevé una temperatura muy similar a la de hoy.

Presión 30.06 pul
Visibilidad -9999.0 Millas
Nubes
Punto de rocío 30 ° F
Humedad 24%
Precipitaciones 0.00 pul
Espesor de la nieve No disponible.
UV No disponible.
Polen No disponible.
Calidad del aire No disponible.
Flu Activity No disponible.
METAR RJCC 240800Z 01008KT CAVOK 20/M01 Q1018 RMK A3006

More Conditions Fewer Conditions

Presión 30.06 pul
Visibilidad -9999.0 Millas
Nubes
Punto de rocío 30 ° F
Humedad 24%
Precipitaciones 0.00 pul
Espesor de la nieve No disponible.
UV No disponible.
Polen No disponible.
Calidad del aire No disponible.
Flu Activity No disponible.
METAR RJCC 240800Z 01008KT CAVOK 20/M01 Q1018 RMK A3006

More Conditions Fewer Conditions

10-Day Weather Forecast

Almanac

Astronomía

Apr. 24, 2014 Salida Puesta
Hora real 4:39 AM JST 6:27 PM JST
Crepúsculo civil 4:09 AM JST 6:57 PM JST
Crepúsculo náutico 3:32 AM JST 7:34 PM JST
Crepúsculo astronómico 2:52 AM JST 8:14 PM JST
Luna 1:34 AM JST 12:51 PM JST
Horas de luz 14h 48m
Horas de luz
13h 47m
Tomorrow will be 2m 41s longer.
Creciente menguante, 28% of the Moon is Illuminated
Hoy
Creciente menguante
Abr 29
Nueva
May 6
Cuarto creciente
May 14
Luna llena
May 21
Cuarto menguante

Extremos de ayer

Máximos del país Bajas del país

Community

  • Stacked
    Stacked
  • clouds approaching Red Sox Nation
    clouds approaching Red Sox Nation
  • Balance
    Balance
  • Nestled In
    Nestled In
  • Stunning Sunrise
    Stunning Sunrise

WunderPhotos

Upload Photos

1,704,575 ¡fotos cargadas!

WunderBlogs® & News

Nearby

Calidad del aire

Not available.

Grosos de nieve

Not available.

Temperaturas de aguas costeras

Lugar Temperatura
Sin partes meteorológicos de las estaciones

Actividad de terremotos

Ciudad Distance Mag. Tiempo y dato
No hay informes recientes de la actividad sísmica.
Magnitud mínima muestra es 2,5.

Estaciones meteorológicas cercanas

No hay estaciones meteorológicas personales en esta zona.

What do you think?

We're not finished. Please let us know what you like, what you don't like, and what you are still missing.